createdAt,value
2023-01-09T00:02:19.794Z,8.07
2023-01-09T00:07:24.344Z,10.05
2023-01-09T00:12:27.680Z,10.43
2023-01-09T00:17:30.959Z,12.10
2023-01-09T00:22:35.607Z,15.18
2023-01-09T00:27:38.906Z,8.27
2023-01-09T00:32:42.119Z,12.32
2023-01-09T00:37:46.778Z,9.32
2023-01-09T00:42:54.289Z,10.57
2023-01-09T00:48:02.149Z,16.67
2023-01-09T00:53:11.295Z,11.65
2023-01-09T00:58:14.984Z,12.10
2023-01-09T01:03:18.188Z,13.32
2023-01-09T01:08:22.632Z,12.40
2023-01-09T01:13:25.801Z,12.37
2023-01-09T01:18:28.879Z,12.18
2023-01-09T01:23:33.332Z,12.80
2023-01-09T01:28:36.463Z,15.77
2023-01-09T01:33:39.503Z,18.63
2023-01-09T01:38:44.253Z,10.52
2023-01-09T01:43:51.587Z,12.52
2023-01-09T01:48:59.576Z,15.40
2023-01-09T01:54:09.157Z,18.20
2023-01-09T01:59:22.280Z,14.98
2023-01-09T02:04:26.723Z,16.50
2023-01-09T02:09:31.417Z,14.53
2023-01-09T02:14:34.861Z,13.75
2023-01-09T02:20:10.672Z,14.38
2023-01-09T02:25:43.065Z,15.80
2023-01-09T02:30:51.868Z,19.73
2023-01-09T02:36:11.143Z,17.58
2023-01-09T02:41:20.281Z,20.58
2023-01-09T02:46:24.687Z,16.65
2023-01-09T02:51:35.455Z,18.07
2023-01-09T02:56:54.356Z,21.20
2023-01-09T03:02:16.886Z,16.17
2023-01-09T03:07:24.838Z,14.65
2023-01-09T03:12:32.179Z,22.33
2023-01-09T03:17:40.974Z,18.75
2023-01-09T03:22:53.112Z,21.10
2023-01-09T03:27:58.521Z,23.60
2023-01-09T03:33:03.075Z,19.45
2023-01-09T03:38:07.953Z,23.90
2023-01-09T03:43:11.213Z,28.15
2023-01-09T03:48:15.571Z,20.80
2023-01-09T03:53:19.651Z,23.13
2023-01-09T03:58:23.451Z,23.15
2023-01-09T04:03:27.881Z,23.45
2023-01-09T04:08:31.287Z,21.30
2023-01-09T04:13:34.567Z,19.50
2023-01-09T04:18:38.986Z,24.77
2023-01-09T04:23:42.103Z,31.97
2023-01-09T04:28:45.143Z,18.45
2023-01-09T04:33:49.569Z,22.23
2023-01-09T04:38:52.647Z,23.70
2023-01-09T04:43:55.703Z,26.33
2023-01-09T04:49:00.138Z,25.65
2023-01-09T04:54:03.637Z,22.33
2023-01-09T04:59:07.496Z,23.13
2023-01-09T05:04:13.159Z,24.77
2023-01-09T05:09:16.521Z,21.73
2023-01-09T05:14:19.792Z,20.45
2023-01-09T05:19:24.358Z,27.50
2023-01-09T05:24:27.466Z,23.97
2023-01-09T05:29:30.705Z,23.98
2023-01-09T05:34:35.201Z,23.75
2023-01-09T05:39:38.217Z,25.03
2023-01-09T05:44:41.206Z,22.08
2023-01-09T05:49:46.577Z,23.92
2023-01-09T05:54:49.680Z,21.60
2023-01-09T05:59:52.738Z,20.10
2023-01-09T06:04:57.253Z,19.45
2023-01-09T06:10:00.361Z,19.03
2023-01-09T06:15:08.006Z,23.33
2023-01-09T06:20:13.673Z,23.33
2023-01-09T06:25:16.887Z,20.35
2023-01-09T06:30:20.552Z,22.63
2023-01-09T06:35:24.961Z,20.75
2023-01-09T06:40:28.262Z,26.60
2023-01-09T06:45:31.609Z,20.77
2023-01-09T06:50:36.152Z,26.02
2023-01-09T06:55:39.202Z,22.93
2023-01-09T07:00:42.594Z,19.30
2023-01-09T07:05:47.570Z,22.15
2023-01-09T07:10:50.632Z,23.55
2023-01-09T07:15:53.898Z,24.85
2023-01-09T07:20:58.311Z,21.17
2023-01-09T07:26:01.795Z,29.30
2023-01-09T07:31:07.627Z,29.48
2023-01-09T07:36:12.776Z,26.73
2023-01-09T07:41:16.043Z,29.90
2023-01-09T07:46:19.194Z,24.08
2023-01-09T07:51:23.728Z,29.90
2023-01-09T07:56:26.769Z,27.67
2023-01-09T08:01:30.056Z,27.48
2023-01-09T08:06:34.600Z,23.05
2023-01-09T08:11:37.633Z,31.30
2023-01-09T08:16:40.752Z,26.90
2023-01-09T08:21:45.242Z,21.48
2023-01-09T08:26:48.284Z,26.50
2023-01-09T08:31:51.476Z,22.42
2023-01-09T08:36:55.919Z,24.23
2023-01-09T08:42:17.462Z,30.87
2023-01-09T08:47:23.339Z,26.50
2023-01-09T08:52:30.644Z,26.00
2023-01-09T08:57:34.265Z,27.33
2023-01-09T09:02:37.471Z,24.60
2023-01-09T09:07:42.851Z,30.45
2023-01-09T09:12:49.796Z,28.52
2023-01-09T09:17:54.787Z,32.28
2023-01-09T09:23:00.007Z,27.33
2023-01-09T09:28:03.114Z,26.25
2023-01-09T09:33:06.495Z,23.15
2023-01-09T09:38:11.557Z,22.70
2023-01-09T09:43:51.543Z,27.65
2023-01-09T09:48:57.475Z,21.17
2023-01-09T09:54:06.016Z,20.00
2023-01-09T09:59:15.802Z,21.40
2023-01-09T10:04:21.504Z,24.75
2023-01-09T10:09:49.216Z,20.08
2023-01-09T10:14:52.772Z,17.33
2023-01-09T10:20:34.857Z,19.08
2023-01-09T10:25:45.449Z,19.33
2023-01-09T10:30:51.707Z,19.45
2023-01-09T10:36:10.184Z,21.40
2023-01-09T10:41:20.910Z,16.00
2023-01-09T10:46:28.731Z,15.02
2023-01-09T10:51:37.184Z,14.43
2023-01-09T10:56:49.779Z,13.38
2023-01-09T11:01:54.092Z,14.20
2023-01-09T11:07:00.734Z,12.77
2023-01-09T11:12:23.917Z,13.52
2023-01-09T11:17:27.522Z,14.90
2023-01-09T11:22:43.103Z,11.75
2023-01-09T11:28:05.210Z,13.25
2023-01-09T11:33:15.796Z,10.50
2023-01-09T11:38:18.926Z,14.00
2023-01-09T11:43:33.025Z,12.70
2023-01-09T11:48:39.457Z,13.60
2023-01-09T11:53:50.041Z,7.78
2023-01-09T11:58:54.765Z,10.57
2023-01-09T12:04:17.135Z,10.15
2023-01-09T12:09:28.671Z,7.00
2023-01-09T12:14:45.281Z,15.02
2023-01-09T12:20:20.883Z,11.90
2023-01-09T12:25:35.430Z,6.63
2023-01-09T12:30:54.158Z,12.23
2023-01-09T12:36:09.671Z,7.75
2023-01-09T12:41:32.005Z,3.65
2023-01-09T12:46:47.028Z,5.50
2023-01-09T12:51:56.844Z,5.18
2023-01-09T12:57:03.155Z,8.40
2023-01-09T13:02:19.764Z,8.43
2023-01-09T13:07:27.085Z,4.38
2023-01-09T13:12:35.618Z,6.78
2023-01-09T13:17:46.648Z,9.23
2023-01-09T13:22:52.329Z,5.07
2023-01-09T13:27:59.227Z,8.70
2023-01-09T13:33:15.549Z,6.45
2023-01-09T13:38:22.171Z,5.47
2023-01-09T13:43:25.552Z,8.20
2023-01-09T13:48:40.891Z,8.23
2023-01-09T13:53:47.720Z,3.35
2023-01-09T13:59:02.921Z,5.07
2023-01-09T14:04:43.662Z,4.75
2023-01-09T14:09:50.749Z,8.95
2023-01-09T14:14:57.383Z,5.75
2023-01-09T14:20:04.640Z,5.65
2023-01-09T14:25:13.631Z,7.15
2023-01-09T14:30:28.453Z,4.75
2023-01-09T14:35:43.974Z,11.57
2023-01-09T14:40:53.202Z,5.22
2023-01-09T14:46:06.545Z,8.38
2023-01-09T14:51:16.987Z,4.90
2023-01-09T14:56:27.854Z,8.90
2023-01-09T15:01:32.984Z,4.45
2023-01-09T15:06:42.404Z,8.73
2023-01-09T15:11:45.861Z,5.90
2023-01-09T15:16:49.054Z,5.25
2023-01-09T15:22:02.117Z,4.78
2023-01-09T15:27:15.537Z,6.45
2023-01-09T15:32:24.029Z,7.00
2023-01-09T15:37:31.908Z,6.97
2023-01-09T15:42:58.039Z,7.20
2023-01-09T15:48:21.045Z,7.55
2023-01-09T15:53:27.918Z,9.32
2023-01-09T15:58:34.768Z,10.38
2023-01-09T16:03:38.831Z,9.82
2023-01-09T16:08:50.202Z,10.25
2023-01-09T16:13:55.604Z,7.97
2023-01-09T16:24:21.529Z,7.68
2023-01-09T16:29:35.312Z,6.70
2023-01-09T16:34:44.095Z,6.55
2023-01-09T16:40:24.058Z,6.25
2023-01-09T16:45:28.598Z,6.93
2023-01-09T16:50:32.079Z,5.75
2023-01-09T16:55:38.148Z,7.38
2023-01-09T17:00:41.289Z,12.63
2023-01-09T17:05:44.966Z,10.00
2023-01-09T17:10:49.917Z,7.70
2023-01-09T17:15:53.669Z,4.85
2023-01-09T17:20:59.316Z,4.45
2023-01-09T17:26:22.174Z,5.00
2023-01-09T17:31:25.320Z,6.40
2023-01-09T17:36:32.057Z,6.90
2023-01-09T17:41:36.886Z,4.78
2023-01-09T17:46:41.962Z,5.43
2023-01-09T17:51:45.465Z,8.27
2023-01-09T17:56:51.139Z,7.18
2023-01-09T18:01:54.367Z,7.63
2023-01-09T18:06:57.597Z,8.63
2023-01-09T18:12:02.526Z,8.07
2023-01-09T18:17:06.311Z,10.38
2023-01-09T18:22:09.417Z,6.10
2023-01-09T18:27:13.915Z,2.60
2023-01-09T18:32:17.019Z,10.53
2023-01-09T18:37:20.297Z,5.75
2023-01-09T18:42:24.857Z,7.90
2023-01-09T18:47:28.053Z,6.77
2023-01-09T18:52:31.175Z,4.82
2023-01-09T18:57:35.975Z,3.78
2023-01-09T19:02:39.395Z,6.40
2023-01-09T19:07:42.556Z,9.80
2023-01-09T19:12:47.033Z,4.60
2023-01-09T19:17:51.667Z,4.23
2023-01-09T19:22:55.837Z,6.30
2023-01-09T19:28:00.450Z,7.68
2023-01-09T19:33:03.647Z,4.28
2023-01-09T19:38:06.856Z,6.55
2023-01-09T19:43:11.410Z,8.65
2023-01-09T19:48:16.761Z,2.80
2023-01-09T19:58:26.516Z,7.65
2023-01-09T20:03:30.944Z,7.10
2023-01-09T20:08:34.424Z,7.35
2023-01-09T20:13:38.973Z,2.67
2023-01-09T20:18:42.536Z,4.85
2023-01-09T20:23:46.113Z,3.25
2023-01-09T20:28:50.587Z,5.60
2023-01-09T20:33:55.031Z,6.40
2023-01-09T20:38:59.924Z,3.27
2023-01-09T20:44:07.175Z,3.95
2023-01-09T20:49:13.107Z,2.58
2023-01-09T20:54:17.477Z,4.85
2023-01-09T20:59:22.283Z,5.10
2023-01-09T21:04:25.785Z,3.67
2023-01-09T21:09:29.211Z,3.42
2023-01-09T21:14:34.747Z,5.05
2023-01-09T21:19:37.760Z,2.83
2023-01-09T21:24:40.830Z,2.28
2023-01-09T21:29:45.659Z,5.97
2023-01-09T21:34:48.740Z,2.42
2023-01-09T21:39:51.897Z,6.65
2023-01-09T21:45:14.868Z,7.30
2023-01-09T21:50:18.310Z,2.45
2023-01-09T21:55:21.568Z,2.33
2023-01-09T22:00:27.778Z,3.13
2023-01-09T22:05:31.101Z,3.45
2023-01-09T22:10:34.189Z,1.98
2023-01-09T22:15:38.662Z,4.90
2023-01-09T22:20:41.804Z,1.03
2023-01-09T22:25:44.861Z,3.03
2023-01-09T22:30:49.472Z,1.38
2023-01-09T22:35:52.735Z,3.33
2023-01-09T22:40:55.782Z,2.60
2023-01-09T22:46:01.094Z,5.45
2023-01-09T22:51:06.933Z,4.63
2023-01-09T22:56:12.850Z,1.65
2023-01-09T23:01:17.273Z,4.53
2023-01-09T23:06:22.155Z,7.43
2023-01-09T23:11:46.837Z,5.63
2023-01-09T23:16:51.734Z,2.38
2023-01-09T23:21:55.106Z,2.90
2023-01-09T23:26:58.552Z,3.33
2023-01-09T23:32:03.128Z,3.13
2023-01-09T23:37:09.109Z,3.37
2023-01-09T23:42:31.071Z,3.40
2023-01-09T23:47:35.442Z,5.13
2023-01-09T23:52:38.587Z,5.77
2023-01-09T23:57:41.910Z,6.00
